Weather at Marble Hall Airport

Public forecast

Using degrees Celsius for public forecast. Weather courtesy of forecast.io.

Closest aviation weather report (METAR) to Marble Hall Airport

Closest report is Polokwane International Airport, 69.3 nm (128.4 km) N. Retrieved 2021/08/01 08:00 UTC (26 minutes ago):

FAPP 010800Z 20005KT CAVOK 17/M00 Q1031 NOSIG

Closest aviation forecast (TAF) to Marble Hall Airport

Forecast is more than 12 hours old.

Closest forecast is Polokwane International Airport, 69.3 nm (128.4 km) N. Retrieved 2021/05/05 07:00 UTC (3 months ago):

TAF FAPP 050600Z 0507/0518 19006KT CAVOK TX24/0512Z TN15/0518Z